Time;durP1;ratioP1;P1;durP2;ratioP2;P2;SDS_P1;SDS_P2;PMS_P1;PMS_P2;Temp;Humidity;BMP_temperature;BMP_pressure;BME280_temperature;BME280_humidity;BME280_pressure;Samples;Min_cycle;Max_cycle;Signal;HPM_P1;HPM_P2
2021/03/11 00:01:00;;;;;;;188.48;104.55;;;4.20;85.90;;;;;;5020734;28;20034;-76
2021/03/11 00:03:26;;;;;;;220.77;123.80;;;4.30;85.00;;;;;;5020888;28;20026;-78
2021/03/11 00:05:53;;;;;;;228.75;123.72;;;4.10;85.60;;;;;;5020007;28;20033;-70
2021/03/11 00:08:20;;;;;;;228.05;121.55;;;4.00;86.20;;;;;;5020126;28;20050;-77
2021/03/11 00:10:46;;;;;;;224.23;122.88;;;3.90;86.90;;;;;;5018991;28;20100;-70
2021/03/11 00:13:12;;;;;;;225.40;123.05;;;3.80;87.00;;;;;;5019257;28;20392;-78
2021/03/11 00:15:40;;;;;;;227.30;120.55;;;3.80;87.40;;;;;;5018710;28;20022;-78
2021/03/11 00:18:07;;;;;;;257.45;134.93;;;3.90;86.80;;;;;;5018117;28;20079;-77
2021/03/11 00:20:34;;;;;;;279.23;148.20;;;3.90;86.50;;;;;;5018465;28;20377;-69
2021/03/11 00:23:00;;;;;;;300.08;155.60;;;3.80;86.90;;;;;;5020371;28;20032;-77
2021/03/11 00:25:28;;;;;;;299.17;156.70;;;3.90;87.30;;;;;;5018111;28;20510;-70
2021/03/11 00:27:55;;;;;;;334.08;166.80;;;3.80;87.10;;;;;;5021028;28;20012;-71
2021/03/11 00:30:22;;;;;;;352.65;175.73;;;3.90;87.80;;;;;;5019083;28;20026;-70
2021/03/11 00:32:48;;;;;;;333.65;171.07;;;3.90;87.50;;;;;;5021640;28;20044;-70
2021/03/11 00:35:14;;;;;;;316.27;162.43;;;3.80;86.30;;;;;;5020745;28;20022;-70
2021/03/11 00:37:42;;;;;;;317.08;167.32;;;3.80;86.40;;;;;;5021406;28;20017;-76
2021/03/11 00:40:11;;;;;;;294.75;152.60;;;3.80;86.90;;;;;;5019999;28;20006;-76
2021/03/11 00:42:37;;;;;;;272.33;139.40;;;3.70;87.40;;;;;;5020738;28;20384;-69
2021/03/11 00:45:04;;;;;;;196.70;107.90;;;3.60;87.90;;;;;;5019952;28;20022;-69
2021/03/11 00:47:30;;;;;;;185.30;103.22;;;3.50;87.90;;;;;;5022067;28;20006;-79
2021/03/11 00:49:56;;;;;;;210.38;111.28;;;3.50;88.60;;;;;;5019738;28;20053;-73
2021/03/11 00:52:22;;;;;;;181.60;100.68;;;3.40;89.40;;;;;;5020436;28;20096;-73
2021/03/11 00:54:48;;;;;;;175.20;96.63;;;3.30;88.70;;;;;;5021756;28;20037;-69
2021/03/11 00:57:14;;;;;;;216.30;105.85;;;3.10;90.00;;;;;;5019899;28;20026;-76
2021/03/11 00:59:40;;;;;;;189.93;98.45;;;3.10;90.40;;;;;;5019272;28;20085;-77
2021/03/11 01:02:06;;;;;;;166.07;89.88;;;3.00;90.60;;;;;;5017446;28;20021;-69
2021/03/11 01:04:32;;;;;;;159.45;88.13;;;2.90;90.90;;;;;;5019064;28;20036;-72
2021/03/11 01:06:58;;;;;;;168.65;87.55;;;3.00;90.80;;;;;;5020172;28;20014;-74
2021/03/11 01:09:24;;;;;;;184.77;94.20;;;3.00;90.90;;;;;;5019977;28;20108;-77
2021/03/11 01:11:50;;;;;;;189.63;95.60;;;3.10;91.10;;;;;;5020029;28;20033;-77
2021/03/11 01:14:17;;;;;;;177.13;93.90;;;3.10;91.00;;;;;;5018365;28;20034;-70
2021/03/11 01:16:50;;;;;;;185.57;95.05;;;3.10;90.70;;;;;;5018670;28;20028;-69
2021/03/11 01:19:17;;;;;;;153.35;83.82;;;3.00;90.90;;;;;;5020389;28;20026;-70
2021/03/11 01:21:43;;;;;;;161.90;86.50;;;3.00;91.40;;;;;;5019037;28;20146;-78
2021/03/11 01:24:09;;;;;;;152.88;81.65;;;3.00;91.60;;;;;;5021122;28;20025;-76
2021/03/11 01:26:35;;;;;;;148.52;79.55;;;2.80;92.10;;;;;;5012871;28;20121;-70
2021/03/11 01:29:02;;;;;;;162.25;86.70;;;2.90;91.80;;;;;;5015554;28;20411;-73
2021/03/11 01:31:29;;;;;;;159.95;88.45;;;2.80;91.80;;;;;;5016691;28;20371;-78
2021/03/11 01:33:55;;;;;;;194.07;105.13;;;2.80;91.80;;;;;;5018085;28;20082;-69
2021/03/11 01:36:21;;;;;;;186.65;100.78;;;2.70;92.10;;;;;;5017902;28;20080;-73
2021/03/11 01:38:47;;;;;;;157.90;91.68;;;2.70;92.80;;;;;;5018970;28;20141;-73
2021/03/11 01:41:13;;;;;;;145.02;86.53;;;2.70;93.00;;;;;;5019087;28;20495;-70
2021/03/11 01:43:39;;;;;;;148.05;85.93;;;2.80;92.90;;;;;;5018619;28;20022;-78
2021/03/11 01:46:05;;;;;;;164.85;92.10;;;2.80;93.00;;;;;;5017598;28;20029;-70
2021/03/11 01:48:31;;;;;;;160.50;90.80;;;2.80;93.20;;;;;;5020324;28;20026;-73
2021/03/11 01:50:57;;;;;;;155.15;89.68;;;2.80;92.90;;;;;;5019392;28;20045;-70
2021/03/11 01:53:23;;;;;;;170.95;96.03;;;2.80;92.80;;;;;;5018456;28;20113;-69
2021/03/11 01:55:49;;;;;;;156.70;91.90;;;2.90;92.40;;;;;;5017803;28;20022;-69
2021/03/11 01:58:16;;;;;;;158.02;84.72;;;2.80;92.40;;;;;;5018578;28;20072;-70
2021/03/11 02:00:42;;;;;;;150.18;83.47;;;2.80;92.70;;;;;;5019326;28;20492;-70
2021/03/11 02:03:08;;;;;;;141.43;79.70;;;2.60;92.90;;;;;;5018615;28;20530;-79
2021/03/11 02:05:34;;;;;;;126.65;74.28;;;2.30;93.20;;;;;;5018754;28;20048;-80
2021/03/11 02:08:00;;;;;;;155.43;82.22;;;2.20;93.50;;;;;;5018565;28;20074;-79
2021/03/11 02:10:27;;;;;;;153.18;80.20;;;2.20;93.70;;;;;;5021019;28;20018;-70
2021/03/11 02:13:10;;;;;;;152.00;83.43;;;2.20;93.80;;;;;;5019311;28;20064;-78
2021/03/11 02:15:44;;;;;;;156.57;84.25;;;2.20;93.50;;;;;;5022506;28;20448;-71
2021/03/11 02:18:17;;;;;;;164.73;90.80;;;2.20;94.00;;;;;;5023641;28;20092;-70
2021/03/11 02:21:12;;;;;;;147.38;83.05;;;2.10;94.60;;;;;;5023161;28;20036;-73
2021/03/11 02:23:48;;;;;;;;;;;1.90;95.20;;;;;;5022172;28;20029;-71
2021/03/11 02:26:32;;;;;;;137.07;73.15;;;2.00;95.30;;;;;;5022139;28;19955;-77
2021/03/11 02:29:01;;;;;;;125.47;69.30;;;2.10;94.90;;;;;;5023767;28;20018;-71
2021/03/11 02:31:31;;;;;;;116.95;63.10;;;2.10;95.10;;;;;;5022700;28;20024;-70
2021/03/11 02:33:58;;;;;;;101.20;56.42;;;2.10;95.30;;;;;;5025162;28;20014;-75
2021/03/11 02:36:25;;;;;;;106.07;61.05;;;2.20;95.50;;;;;;5022158;28;20025;-78
2021/03/11 02:38:54;;;;;;;118.32;63.92;;;2.10;95.90;;;;;;5020495;28;20092;-71
2021/03/11 02:41:21;;;;;;;109.97;62.03;;;2.10;95.60;;;;;;5022763;28;20023;-73
2021/03/11 02:43:48;;;;;;;104.07;58.17;;;2.10;95.50;;;;;;5022907;28;20026;-70
2021/03/11 02:46:16;;;;;;;136.55;70.05;;;2.20;95.20;;;;;;5023647;28;20033;-70
2021/03/11 02:48:47;;;;;;;132.27;66.40;;;2.20;95.20;;;;;;5023024;28;20025;-82
2021/03/11 02:51:14;;;;;;;126.80;61.40;;;2.20;95.10;;;;;;5023137;28;20042;-77
2021/03/11 02:53:40;;;;;;;114.72;58.17;;;2.10;95.30;;;;;;5022836;28;20026;-70
2021/03/11 02:56:08;;;;;;;97.28;55.40;;;2.10;95.40;;;;;;5022253;28;20006;-79
2021/03/11 02:58:36;;;;;;;94.93;53.13;;;2.00;95.70;;;;;;5023251;28;20014;-70
2021/03/11 03:01:03;;;;;;;110.35;59.15;;;1.90;95.80;;;;;;5022577;28;20026;-70
2021/03/11 03:03:30;;;;;;;120.05;59.47;;;1.90;95.70;;;;;;5022997;28;20041;-73
2021/03/11 03:05:57;;;;;;;113.45;56.67;;;1.80;95.80;;;;;;5020939;28;20049;-79
2021/03/11 03:08:24;;;;;;;93.53;50.50;;;1.80;95.90;;;;;;5021296;28;20353;-80
2021/03/11 03:10:53;;;;;;;97.18;51.33;;;1.80;95.90;;;;;;5023191;28;20025;-74
2021/03/11 03:13:20;;;;;;;83.78;47.22;;;1.80;96.00;;;;;;5022511;28;20021;-70
2021/03/11 03:15:46;;;;;;;83.72;46.95;;;1.70;96.20;;;;;;5021862;28;20018;-70
2021/03/11 03:18:17;;;;;;;98.80;53.47;;;1.70;96.40;;;;;;5023477;28;20101;-70
2021/03/11 03:20:45;;;;;;;92.03;49.70;;;1.60;96.50;;;;;;5022279;28;20041;-80
2021/03/11 03:23:12;;;;;;;97.28;53.60;;;1.70;96.10;;;;;;5022840;28;20022;-70
2021/03/11 03:25:38;;;;;;;112.75;62.30;;;1.70;95.80;;;;;;5019923;28;20024;-70
2021/03/11 03:28:05;;;;;;;97.18;56.42;;;1.70;96.00;;;;;;5020643;28;20033;-75
2021/03/11 03:30:32;;;;;;;107.38;60.78;;;1.70;96.10;;;;;;5020543;28;20084;-71
2021/03/11 03:32:58;;;;;;;94.43;54.03;;;1.60;96.00;;;;;;5022454;28;20034;-72
2021/03/11 03:35:24;;;;;;;88.10;46.38;;;1.60;95.90;;;;;;5021956;28;20025;-82
2021/03/11 03:37:53;;;;;;;75.03;41.83;;;1.60;95.80;;;;;;5020302;28;20037;-71
2021/03/11 03:40:22;;;;;;;73.60;42.50;;;1.60;95.90;;;;;;5018833;28;20032;-73
2021/03/11 03:43:10;;;;;;;76.45;41.63;;;1.60;96.20;;;;;;5020574;28;20018;-71
2021/03/11 03:45:43;;;;;;;70.57;41.97;;;1.50;95.90;;;;;;5023604;28;20037;-81
2021/03/11 03:48:15;;;;;;;74.03;41.20;;;1.50;95.80;;;;;;5039316;28;20067;-71
2021/03/11 03:50:45;;;;;;;79.78;45.88;;;1.40;95.80;;;;;;5035833;28;20279;-71
2021/03/11 03:53:24;;;;;;;85.95;49.78;;;1.30;96.00;;;;;;5034281;28;20159;-75
2021/03/11 03:55:56;;;;;;;100.60;52.90;;;1.30;96.10;;;;;;5038818;28;20078;-71
2021/03/11 03:58:23;;;;;;;101.10;53.42;;;1.20;96.60;;;;;;5040001;28;20398;-71
2021/03/11 04:00:49;;;;;;;90.28;50.35;;;1.20;96.60;;;;;;5040293;28;20108;-70
2021/03/11 04:03:16;;;;;;;90.70;50.45;;;1.20;96.50;;;;;;5039772;28;20021;-76
2021/03/11 04:05:43;;;;;;;86.20;46.65;;;1.20;96.60;;;;;;5040724;28;20025;-70
2021/03/11 04:08:10;;;;;;;87.40;48.65;;;1.20;96.60;;;;;;5040644;28;20040;-71
2021/03/11 04:10:36;;;;;;;85.20;48.45;;;1.10;96.60;;;;;;5040877;28;20060;-83
2021/03/11 04:13:03;;;;;;;78.80;45.30;;;1.10;96.50;;;;;;5039653;28;20537;-71
2021/03/11 04:15:29;;;;;;;79.43;45.30;;;1.20;96.50;;;;;;5038876;28;20132;-70
2021/03/11 04:17:57;;;;;;;83.90;49.33;;;1.20;96.40;;;;;;5039520;28;20022;-80
2021/03/11 04:20:24;;;;;;;86.20;49.45;;;1.20;96.60;;;;;;5039117;28;20040;-72
2021/03/11 04:22:50;;;;;;;84.40;50.10;;;1.20;96.60;;;;;;5039199;28;20066;-83
2021/03/11 04:25:16;;;;;;;90.03;52.70;;;1.20;96.40;;;;;;5039620;28;20475;-70
2021/03/11 04:27:43;;;;;;;83.10;47.78;;;1.30;96.20;;;;;;5038448;28;20104;-70
2021/03/11 04:30:09;;;;;;;76.35;43.42;;;1.30;96.00;;;;;;5038898;28;20053;-72
2021/03/11 04:32:36;;;;;;;70.32;42.95;;;1.30;96.00;;;;;;5039447;28;20048;-80
2021/03/11 04:35:03;;;;;;;76.90;42.08;;;1.20;95.60;;;;;;5038923;28;20026;-71
2021/03/11 04:37:30;;;;;;;74.85;43.38;;;1.20;95.60;;;;;;5037675;28;20029;-70
2021/03/11 04:39:57;;;;;;;70.15;42.95;;;1.20;95.70;;;;;;5038561;28;20001;-84
2021/03/11 04:42:23;;;;;;;78.47;43.35;;;1.10;95.30;;;;;;5037578;28;20021;-85
2021/03/11 04:44:50;;;;;;;93.13;52.70;;;1.20;95.20;;;;;;5040703;28;20018;-84
2021/03/11 04:47:16;;;;;;;134.70;73.38;;;1.10;95.30;;;;;;5041763;28;20018;-70
2021/03/11 04:49:43;;;;;;;133.07;77.57;;;1.20;95.40;;;;;;5038899;28;20065;-70
2021/03/11 04:52:10;;;;;;;120.72;71.72;;;1.10;95.80;;;;;;5040124;28;20456;-70
2021/03/11 04:54:37;;;;;;;136.43;75.97;;;1.20;95.80;;;;;;5041743;28;20120;-80
2021/03/11 04:57:04;;;;;;;167.50;84.20;;;1.10;96.20;;;;;;5040905;28;20069;-82
2021/03/11 04:59:31;;;;;;;158.30;79.53;;;1.00;96.90;;;;;;5041712;28;20028;-83
2021/03/11 05:02:00;;;;;;;142.27;77.25;;;1.10;96.80;;;;;;5039267;28;20081;-70
2021/03/11 05:04:27;;;;;;;127.78;73.40;;;1.20;96.30;;;;;;5039862;28;20018;-81
2021/03/11 05:06:53;;;;;;;115.20;65.90;;;1.10;96.60;;;;;;5039423;28;20021;-75
2021/03/11 05:09:19;;;;;;;108.10;62.63;;;1.10;96.80;;;;;;5042175;28;20010;-73
2021/03/11 05:11:47;;;;;;;134.18;73.93;;;1.20;96.40;;;;;;5041286;28;20026;-84
2021/03/11 05:14:13;;;;;;;145.45;78.70;;;1.20;96.10;;;;;;5038789;28;20028;-71
2021/03/11 05:16:38;;;;;;;146.30;88.00;;;1.30;95.90;;;;;;5038473;28;20001;-71
2021/03/11 05:19:05;;;;;;;118.05;71.28;;;1.10;96.20;;;;;;5037177;28;20109;-85
2021/03/11 05:21:31;;;;;;;99.60;58.10;;;1.10;96.70;;;;;;5034890;28;20021;-71
2021/03/11 05:23:56;;;;;;;113.78;70.45;;;1.00;96.80;;;;;;5039881;28;20075;-71
2021/03/11 05:26:22;;;;;;;96.10;52.97;;;1.10;96.60;;;;;;5038467;28;20481;-71
2021/03/11 05:28:48;;;;;;;89.68;53.00;;;1.10;96.60;;;;;;5039038;28;20048;-74
2021/03/11 05:31:14;;;;;;;96.25;54.92;;;0.80;96.60;;;;;;5035534;28;20435;-79
2021/03/11 05:33:40;;;;;;;110.78;61.03;;;0.90;96.50;;;;;;5039369;28;20029;-75
2021/03/11 05:36:06;;;;;;;105.43;59.90;;;0.90;96.70;;;;;;5037892;28;20032;-76
2021/03/11 05:38:32;;;;;;;124.38;71.93;;;0.90;96.90;;;;;;5038516;28;20022;-83
2021/03/11 05:41:00;;;;;;;118.82;68.97;;;0.80;97.00;;;;;;5038225;28;20073;-71
2021/03/11 05:43:27;;;;;;;114.93;68.15;;;0.90;96.90;;;;;;5042047;28;20018;-73
2021/03/11 05:45:55;;;;;;;95.25;58.72;;;0.80;97.10;;;;;;5040013;28;20010;-70
2021/03/11 05:48:21;;;;;;;93.13;58.45;;;0.90;96.90;;;;;;5037330;28;20471;-71
2021/03/11 05:50:50;;;;;;;118.32;73.72;;;0.90;96.80;;;;;;5040173;28;20045;-71
2021/03/11 05:53:17;;;;;;;113.78;69.32;;;1.00;96.80;;;;;;5038980;28;20450;-81
2021/03/11 05:55:43;;;;;;;98.00;57.83;;;1.00;96.60;;;;;;5038843;28;20037;-71
2021/03/11 05:58:10;;;;;;;94.85;54.97;;;1.10;96.30;;;;;;5039456;28;20045;-82
2021/03/11 06:00:36;;;;;;;90.05;53.10;;;0.90;96.20;;;;;;5038464;28;20021;-70
2021/03/11 06:03:03;;;;;;;81.63;47.40;;;1.00;96.10;;;;;;5039675;28;20045;-76
2021/03/11 06:05:31;;;;;;;74.60;44.03;;;1.00;96.00;;;;;;5037821;28;20022;-74
2021/03/11 06:07:58;;;;;;;79.43;45.45;;;1.30;95.80;;;;;;5037281;28;20028;-71
2021/03/11 06:10:24;;;;;;;69.20;40.08;;;1.40;95.30;;;;;;5039355;28;20045;-79
2021/03/11 06:12:52;;;;;;;68.45;41.60;;;1.50;94.60;;;;;;5039163;28;20036;-71
2021/03/11 06:15:24;;;;;;;77.07;45.22;;;1.50;94.40;;;;;;5038516;28;20017;-79
2021/03/11 06:17:51;;;;;;;74.18;43.97;;;1.50;94.40;;;;;;5040602;28;20052;-71
2021/03/11 06:20:17;;;;;;;80.53;45.83;;;1.80;94.20;;;;;;5039273;28;20021;-78
2021/03/11 06:22:43;;;;;;;68.75;41.85;;;2.00;93.80;;;;;;5039446;28;20014;-70
2021/03/11 06:25:10;;;;;;;71.32;44.75;;;2.20;93.50;;;;;;5038931;28;20387;-82
2021/03/11 06:27:36;;;;;;;63.95;39.85;;;2.30;93.70;;;;;;5037954;28;20022;-69
2021/03/11 06:30:03;;;;;;;65.68;39.58;;;2.40;93.70;;;;;;5039978;28;20494;-69
2021/03/11 06:32:29;;;;;;;132.40;75.25;;;2.50;93.60;;;;;;5037867;28;20036;-69
2021/03/11 06:34:55;;;;;;;82.53;50.50;;;2.60;92.40;;;;;;5037301;28;20013;-81
2021/03/11 06:37:41;;;;;;;84.70;46.15;;;2.50;91.80;;;;;;5039567;28;20025;-74
2021/03/11 06:40:18;;;;;;;80.78;43.17;;;2.40;91.80;;;;;;5040285;28;20033;-78
2021/03/11 06:42:46;;;;;;;109.25;53.80;;;2.40;92.20;;;;;;5039103;28;20028;-81
2021/03/11 06:45:26;;;;;;;97.30;50.42;;;2.50;92.60;;;;;;5036506;28;20418;-69
2021/03/11 06:48:13;;;;;;;102.32;51.13;;;2.70;92.30;;;;;;5038088;28;20383;-69
2021/03/11 06:50:39;;;;;;;111.07;54.17;;;2.80;91.80;;;;;;5038154;28;20407;-70
2021/03/11 06:53:05;;;;;;;101.20;49.80;;;3.00;91.80;;;;;;5039114;28;20112;-76
2021/03/11 06:55:31;;;;;;;71.70;39.85;;;3.10;91.40;;;;;;5038854;28;20033;-67
2021/03/11 06:58:16;;;;;;;119.45;66.95;;;3.20;91.00;;;;;;5037459;28;20029;-69
2021/03/11 07:00:42;;;;;;;114.63;56.58;;;3.30;90.40;;;;;;5039874;28;20018;-69
2021/03/11 07:03:08;;;;;;;166.15;85.82;;;3.40;90.20;;;;;;5043304;28;20001;-68
2021/03/11 07:05:39;;;;;;;149.43;87.05;;;3.40;88.80;;;;;;5040650;28;20018;-84
2021/03/11 07:08:09;;;;;;;90.22;49.70;;;3.40;88.30;;;;;;5044015;28;20105;-73
2021/03/11 07:10:36;;;;;;;73.60;41.33;;;3.60;89.70;;;;;;5044228;28;20020;-76
2021/03/11 07:13:03;;;;;;;55.88;33.40;;;3.80;89.30;;;;;;5042122;28;20033;-73
2021/03/11 07:15:32;;;;;;;58.45;38.45;;;3.80;86.20;;;;;;5038589;28;20021;-76
2021/03/11 07:17:59;;;;;;;77.10;41.20;;;3.80;85.90;;;;;;5040806;28;20032;-73
2021/03/11 07:20:27;;;;;;;55.90;33.78;;;4.10;88.00;;;;;;5042093;28;20051;-71
2021/03/11 07:23:04;;;;;;;208.52;102.97;;;4.20;85.80;;;;;;5041679;28;20025;-67
2021/03/11 07:25:49;;;;;;;459.65;257.08;;;4.30;83.30;;;;;;5038854;28;20025;-69
2021/03/11 07:28:30;;;;;;;204.75;103.75;;;4.40;82.80;;;;;;5028603;28;20030;-69
2021/03/11 07:31:00;;;;;;;105.32;66.22;;;4.60;82.90;;;;;;5026739;28;20083;-69
2021/03/11 07:33:28;;;;;;;58.28;33.97;;;4.80;84.90;;;;;;5024942;28;20053;-69
2021/03/11 07:35:59;;;;;;;61.92;36.67;;;4.90;82.50;;;;;;5024389;28;20029;-69
2021/03/11 07:38:28;;;;;;;51.53;31.48;;;4.90;81.40;;;;;;5017812;28;20026;-70
2021/03/11 07:40:56;;;;;;;61.72;35.88;;;4.90;79.60;;;;;;5016603;28;20033;-69
2021/03/11 07:43:24;;;;;;;41.53;25.95;;;5.20;82.30;;;;;;5016166;28;20022;-68
2021/03/11 07:45:51;;;;;;;43.28;27.77;;;5.30;80.40;;;;;;5017672;28;20498;-68
2021/03/11 07:48:17;;;;;;;46.50;28.30;;;5.30;80.00;;;;;;5036851;28;20029;-66
2021/03/11 07:50:44;;;;;;;43.63;29.15;;;5.60;79.40;;;;;;5035725;28;20119;-74
2021/03/11 07:53:10;;;;;;;55.60;33.58;;;5.60;78.30;;;;;;5037561;28;20047;-68
2021/03/11 07:55:38;;;;;;;48.20;27.90;;;5.70;77.00;;;;;;5038278;28;20087;-69
2021/03/11 07:58:12;;;;;;;55.40;31.58;;;5.80;72.80;;;;;;5038181;28;20017;-66
2021/03/11 08:00:38;;;;;;;35.90;23.52;;;5.90;76.10;;;;;;5038595;28;20056;-67
2021/03/11 08:03:14;;;;;;;50.60;29.25;;;6.00;73.60;;;;;;5036685;28;20032;-68
2021/03/11 08:05:41;;;;;;;48.92;28.00;;;5.90;71.30;;;;;;5035224;28;20025;-74
2021/03/11 08:08:25;;;;;;;41.90;27.10;;;6.20;72.20;;;;;;5037500;28;20060;-73
2021/03/11 08:10:58;;;;;;;63.65;37.70;;;6.40;73.50;;;;;;5038756;28;20030;-73
2021/03/11 08:13:23;;;;;;;66.03;38.92;;;6.40;71.90;;;;;;5037416;28;20510;-70
2021/03/11 08:15:53;;;;;;;43.78;29.23;;;6.40;71.00;;;;;;5037377;28;20025;-76
2021/03/11 08:18:49;;;;;;;44.70;29.23;;;6.40;72.80;;;;;;5038713;28;20376;-77
2021/03/11 08:21:24;;;;;;;35.42;24.15;;;6.70;71.80;;;;;;5003366;28;20560;-76
2021/03/11 08:23:51;;;;;;;;;;;6.90;70.80;;;;;;5020855;28;20045;-77
2021/03/11 08:26:38;;;;;;;42.92;27.35;;;7.30;72.00;;;;;;5018259;28;19890;-73
2021/03/11 08:29:19;;;;;;;52.13;30.63;;;7.50;70.10;;;;;;5017765;28;20037;-79
2021/03/11 08:31:46;;;;;;;40.67;25.58;;;7.40;65.80;;;;;;5012132;28;20416;-73
2021/03/11 08:34:33;;;;;;;39.80;25.20;;;7.60;69.20;;;;;;5012012;28;20084;-70
2021/03/11 08:37:17;;;;;;;39.53;25.05;;;7.80;66.10;;;;;;5012903;28;20038;-68
2021/03/11 08:39:44;;;;;;;39.28;24.50;;;7.80;64.40;;;;;;5011964;28;20046;-71
2021/03/11 08:42:42;;;;;;;34.70;23.63;;;7.70;64.20;;;;;;5012047;28;20133;-69
2021/03/11 08:45:08;;;;;;;36.45;22.48;;;7.90;67.60;;;;;;5012715;28;20069;-71
2021/03/11 08:47:34;;;;;;;41.03;24.80;;;8.30;64.70;;;;;;4993614;28;20026;-76
2021/03/11 08:50:02;;;;;;;33.70;21.92;;;8.80;66.00;;;;;;4995746;28;20060;-71
2021/03/11 08:52:45;;;;;;;44.63;28.55;;;9.10;63.90;;;;;;5012575;28;20479;-69
2021/03/11 08:55:39;;;;;;;33.67;23.45;;;9.10;60.60;;;;;;5012177;28;20033;-70
2021/03/11 08:58:24;;;;;;;35.92;25.88;;;9.00;59.50;;;;;;5018903;28;20383;-78
2021/03/11 09:00:56;;;;;;;34.45;22.70;;;9.40;61.40;;;;;;5030438;28;20022;-77
2021/03/11 09:03:44;;;;;;;36.45;24.65;;;9.90;61.20;;;;;;5045447;28;20033;-76
2021/03/11 09:06:14;;;;;;;32.53;22.60;;;10.30;61.00;;;;;;5046455;28;20021;-70
2021/03/11 09:08:50;;;;;;;33.78;23.00;;;10.10;58.30;;;;;;5044628;28;20075;-75
2021/03/11 09:11:22;;;;;;;36.55;23.23;;;10.10;57.50;;;;;;5047363;28;20080;-75
2021/03/11 09:13:51;;;;;;;34.92;26.50;;;10.20;57.60;;;;;;5040092;28;20040;-70
2021/03/11 09:16:24;;;;;;;46.58;39.05;;;10.20;58.70;;;;;;5037697;28;20112;-69
2021/03/11 09:18:59;;;;;;;32.78;21.38;;;10.50;58.20;;;;;;5040743;28;20025;-72
2021/03/11 09:21:32;;;;;;;33.35;24.20;;;10.50;53.70;;;;;;5037675;28;20048;-74
2021/03/11 09:23:58;;;;;;;945.20;499.27;;;10.10;51.20;;;;;;5040608;28;20018;-79
2021/03/11 09:26:25;;;;;;;34.15;22.35;;;9.90;51.90;;;;;;5039215;28;20678;-67
2021/03/11 09:28:51;;;;;;;29.48;20.67;;;10.10;51.60;;;;;;5040711;28;20025;-69
2021/03/11 09:31:25;;;;;;;130.70;68.25;;;10.10;51.20;;;;;;5040423;28;20021;-68
2021/03/11 09:33:52;;;;;;;121.80;52.67;;;10.70;52.70;;;;;;5040479;28;20510;-73
2021/03/11 09:36:18;;;;;;;66.80;36.20;;;10.60;49.20;;;;;;5037022;28;20017;-76
2021/03/11 09:38:44;;;;;;;33.80;22.55;;;10.70;48.90;;;;;;5040285;28;20025;-73
2021/03/11 09:41:11;;;;;;;53.95;27.50;;;;;;;;;;5039595;28;20411;-76
2021/03/11 09:43:42;;;;;;;53.70;30.85;;;10.90;47.40;;;;;;5039822;28;20018;-71
2021/03/11 09:46:08;;;;;;;31.80;21.92;;;11.10;48.60;;;;;;5039638;28;20032;-69
2021/03/11 09:48:45;;;;;;;25.73;17.42;;;11.20;46.50;;;;;;5040124;28;20022;-69
2021/03/11 09:51:18;;;;;;;166.93;78.00;;;11.10;45.00;;;;;;5036734;28;20400;-69
2021/03/11 09:53:46;;;;;;;56.67;32.67;;;10.50;44.00;;;;;;5038742;28;20046;-70
2021/03/11 09:56:14;;;;;;;33.13;23.30;;;10.70;46.80;;;;;;5036521;28;20034;-76
2021/03/11 09:59:04;;;;;;;28.52;19.70;;;11.20;45.80;;;;;;5034569;28;20025;-70
2021/03/11 10:01:31;;;;;;;45.30;30.88;;;11.30;42.80;;;;;;5032319;28;20072;-69
2021/03/11 10:03:57;;;;;;;20.67;15.32;;;11.30;41.20;;;;;;5034312;28;20028;-69
2021/03/11 10:06:25;;;;;;;24.38;17.23;;;11.20;41.00;;;;;;5035328;28;20022;-75
2021/03/11 10:08:58;;;;;;;21.55;14.68;;;11.20;43.00;;;;;;5038963;28;20028;-69
2021/03/11 10:11:41;;;;;;;21.90;13.73;;;11.00;40.90;;;;;;5038681;28;20065;-77
2021/03/11 10:14:15;;;;;;;24.75;14.77;;;10.70;42.00;;;;;;5037874;28;20037;-70
2021/03/11 10:16:44;;;;;;;25.92;15.77;;;10.90;42.30;;;;;;5040406;28;20059;-70
2021/03/11 10:19:15;;;;;;;24.25;14.45;;;10.90;42.80;;;;;;5037758;28;20022;-76
2021/03/11 10:22:03;;;;;;;21.20;13.73;;;11.00;42.30;;;;;;5037331;28;20059;-69
2021/03/11 10:24:34;;;;;;;41.88;25.30;;;11.00;42.20;;;;;;5037387;28;20116;-76
2021/03/11 10:27:01;;;;;;;22.48;14.52;;;11.20;43.80;;;;;;5038336;28;20026;-69
2021/03/11 10:29:31;;;;;;;38.00;21.58;;;11.10;41.70;;;;;;5039194;28;20100;-76
2021/03/11 10:32:03;;;;;;;38.83;22.73;;;11.60;42.90;;;;;;5039796;28;20022;-68
2021/03/11 10:34:30;;;;;;;20.90;15.38;;;11.60;42.60;;;;;;5038902;28;20021;-73
2021/03/11 10:36:58;;;;;;;31.67;22.40;;;11.50;41.50;;;;;;5039569;28;20021;-69
2021/03/11 10:39:25;;;;;;;37.60;23.85;;;11.90;41.30;;;;;;5042511;28;20029;-74
2021/03/11 10:41:59;;;;;;;29.17;20.63;;;12.00;41.90;;;;;;5042211;28;20028;-75
2021/03/11 10:44:25;;;;;;;;;;;11.90;41.00;;;;;;5043930;28;20029;-70
2021/03/11 10:46:51;;;;;;;26.40;18.02;;;12.00;43.00;;;;;;5042012;28;19963;-73
2021/03/11 10:49:17;;;;;;;18.85;14.02;;;12.00;41.70;;;;;;5046798;28;20037;-69
2021/03/11 10:51:43;;;;;;;28.92;21.45;;;12.10;39.50;;;;;;5044666;28;20073;-76
2021/03/11 10:54:29;;;;;;;21.10;14.90;;;12.70;42.40;;;;;;5048171;28;20029;-77
2021/03/11 10:57:13;;;;;;;35.33;24.58;;;12.20;38.60;;;;;;5044736;28;20033;-69
2021/03/11 10:59:59;;;;;;;25.02;17.15;;;12.30;40.90;;;;;;5044270;28;20030;-76
2021/03/11 11:02:30;;;;;;;19.08;13.57;;;12.30;39.10;;;;;;5044156;28;20006;-77
2021/03/11 11:04:58;;;;;;;28.98;18.45;;;12.40;39.60;;;;;;5045751;28;20044;-68
2021/03/11 11:07:25;;;;;;;23.67;15.38;;;12.60;42.80;;;;;;5045010;28;20030;-77
2021/03/11 11:09:53;;;;;;;21.85;14.38;;;13.20;39.20;;;;;;5043846;28;20032;-69
2021/03/11 11:12:20;;;;;;;21.25;14.38;;;12.90;39.40;;;;;;5045374;28;20372;-72
2021/03/11 11:14:48;;;;;;;31.25;19.05;;;12.90;40.60;;;;;;5044743;28;20426;-75
2021/03/11 11:17:14;;;;;;;35.67;23.92;;;12.70;39.00;;;;;;5046588;28;20021;-75
2021/03/11 11:19:42;;;;;;;41.05;23.08;;;12.50;39.60;;;;;;5045998;28;20021;-77
2021/03/11 11:22:09;;;;;;;33.22;21.52;;;12.70;39.40;;;;;;5046016;28;20379;-70
2021/03/11 11:24:39;;;;;;;20.92;14.02;;;13.20;38.50;;;;;;5043449;28;20037;-70
2021/03/11 11:27:06;;;;;;;116.40;74.43;;;13.10;38.20;;;;;;5039653;28;20037;-74
2021/03/11 11:29:32;;;;;;;320.52;234.82;;;12.70;38.50;;;;;;5045637;28;20079;-70
2021/03/11 11:31:58;;;;;;;37.25;27.13;;;13.00;39.60;;;;;;5040684;28;20061;-73
2021/03/11 11:34:24;;;;;;;144.25;75.45;;;12.50;36.70;;;;;;5038016;28;20034;-70
2021/03/11 11:36:50;;;;;;;72.10;37.03;;;12.70;38.90;;;;;;5039482;28;20479;-71
2021/03/11 11:39:16;;;;;;;85.00;40.00;;;12.70;38.90;;;;;;5039272;28;20109;-69
2021/03/11 11:41:43;;;;;;;20.30;14.85;;;12.70;39.60;;;;;;5041190;28;20045;-74
2021/03/11 11:44:10;;;;;;;28.73;19.08;;;12.50;38.30;;;;;;5041072;28;20030;-69
2021/03/11 11:46:36;;;;;;;40.72;28.55;;;12.40;39.80;;;;;;5038995;28;20021;-78
2021/03/11 11:49:03;;;;;;;67.30;35.15;;;12.30;38.80;;;;;;5039694;28;20021;-72
2021/03/11 11:51:30;;;;;;;36.15;24.73;;;12.70;39.30;;;;;;5040846;28;20053;-67
2021/03/11 11:53:56;;;;;;;39.13;23.10;;;12.60;38.60;;;;;;5029098;28;20022;-77
2021/03/11 11:56:22;;;;;;;27.45;16.33;;;12.30;38.50;;;;;;5038628;28;20013;-69
2021/03/11 11:58:48;;;;;;;92.35;39.72;;;12.70;37.70;;;;;;5037988;28;20028;-69
2021/03/11 12:01:17;;;;;;;71.90;35.15;;;13.20;40.30;;;;;;5036342;28;20019;-68
2021/03/11 12:03:43;;;;;;;68.47;38.97;;;13.30;38.50;;;;;;5036428;28;20018;-74
2021/03/11 12:06:09;;;;;;;75.00;47.85;;;13.20;39.60;;;;;;5034179;28;20021;-68
2021/03/11 12:08:35;;;;;;;84.13;41.05;;;12.80;37.80;;;;;;5037343;28;20093;-72
2021/03/11 12:11:01;;;;;;;32.67;20.15;;;13.00;37.80;;;;;;5039160;28;20463;-69
2021/03/11 12:13:28;;;;;;;37.28;21.63;;;12.80;38.20;;;;;;5040426;28;20502;-69
2021/03/11 12:15:54;;;;;;;51.42;32.08;;;12.60;37.30;;;;;;5037397;28;20056;-70
2021/03/11 12:18:20;;;;;;;72.40;35.58;;;12.60;38.80;;;;;;5036094;28;20021;-70
2021/03/11 12:20:45;;;;;;;58.75;34.55;;;12.30;38.80;;;;;;5040239;28;20029;-71
2021/03/11 12:23:12;;;;;;;41.83;25.15;;;12.70;40.00;;;;;;5038336;28;20027;-74
2021/03/11 12:25:38;;;;;;;50.42;29.33;;;12.70;37.30;;;;;;5039550;28;20009;-76
2021/03/11 12:28:04;;;;;;;75.03;42.05;;;13.00;37.70;;;;;;5037115;28;20028;-68
2021/03/11 12:30:31;;;;;;;23.63;17.50;;;12.60;37.00;;;;;;5038927;28;20092;-70
2021/03/11 12:32:57;;;;;;;24.17;16.50;;;12.90;38.50;;;;;;5036713;28;20435;-69
2021/03/11 12:35:24;;;;;;;60.30;46.20;;;12.50;37.50;;;;;;5038796;28;20029;-70
2021/03/11 12:37:50;;;;;;;17.35;13.43;;;12.60;38.40;;;;;;5040747;28;20025;-73
2021/03/11 12:40:17;;;;;;;13.82;10.60;;;12.70;38.20;;;;;;5040566;28;20499;-72